Gilman, IA (50106)

1:05 AM CDT on July 31, 2016 (GMT -0500)
IEM | | Change Station

Elev 839 ft 41.99 °N, 92.65 °W | Updated 26 minutes ago

Clear
Clear
64 °F
Feels Like 64 °F
N
5
Wind Variable Wind from SE
Gusts 0.0 mph

Today
High -- | Low -- °F
--% Chance of Precip.
Yesterday
High -- | Low -- °F
Precip. -- in
Pressure 30.01 in
Visibility 7.0 miles
Clouds Clear
Dew Point 61 °F
Humidity 88%
Rainfall in
Snow Depth Not available.
6:04 AM 8:30 PM
Waning Crescent, 8% visible
METAR KGGI 310555Z AUTO 09004KT 7SM CLR 19/18 A3001 RMK AO2 T01880175 10255 20188 402650184
Pressure 30.01 in
Visibility 7.0 miles
Clouds Clear
Dew Point 61 °F
Humidity 88%
Rainfall in
Snow Depth Not available.
6:04 AM 8:30 PM
Waning Crescent, 8% visible
METAR KGGI 310555Z AUTO 09004KT 7SM CLR 19/18 A3001 RMK AO2 T01880175 10255 20188 402650184

10-Day Weather Forecast

Almanac

Astronomy

Jul. 31, 2016 Rise Set
Actual Time
Civil Twilight
Nautical Twilight
Astronomical Twilight
Moon
Length of Visible Light
Length of Day
Tomorrow will be .
, % of the Moon is Illuminated

Today's Extremes

State Highs State Lows

Community

WunderPhotos

Upload Photos

1,928,766 photos uploaded!

WunderBlog® & News

Nearby

Air Quality

  Air Quality AQ Index Pollutant
Not available.

Snow Depth

Station Depth Elevation

Earthquake Activity

City Distance Mag. Time & Date
Minimum magnitude displayed is 2.5.

Coastal Water Temperatures

Place Temperature

Stations

Nearby Weather Stations

Station Location Temp. Windchill Dew Point Humidity Wind Precip. Elev Updated Type
                   

Watches & Warnings

There are currently no watches in effect.